createdAt,value
2023-11-23T00:02:01.788Z,-2.80
2023-11-23T00:04:30.427Z,-2.60
2023-11-23T00:06:59.122Z,-2.80
2023-11-23T00:09:28.130Z,-2.80
2023-11-23T00:11:56.764Z,-2.80
2023-11-23T00:14:26.784Z,-2.80
2023-11-23T00:16:57.348Z,-2.70
2023-11-23T00:19:25.930Z,-2.80
2023-11-23T00:21:54.437Z,-2.80
2023-11-23T00:24:22.972Z,-2.60
2023-11-23T00:26:52.673Z,-2.60
2023-11-23T00:29:21.449Z,-2.70
2023-11-23T00:31:51.523Z,-2.70
2023-11-23T00:34:20.232Z,-2.70
2023-11-23T00:36:51.222Z,-2.80
2023-11-23T00:39:20.369Z,-2.70
2023-11-23T00:41:48.769Z,-2.60
2023-11-23T00:44:19.397Z,-2.60
2023-11-23T00:46:48.022Z,-2.60
2023-11-23T00:49:20.850Z,-2.60
2023-11-23T00:51:49.536Z,-2.50
2023-11-23T00:54:18.300Z,-2.50
2023-11-23T00:56:47.464Z,-2.40
2023-11-23T00:59:15.940Z,-2.50
2023-11-23T01:01:44.563Z,-2.40
2023-11-23T01:04:15.160Z,-2.50
2023-11-23T01:06:46.105Z,-2.50
2023-11-23T01:09:16.813Z,-2.50
2023-11-23T01:11:45.384Z,-2.30
2023-11-23T01:14:14.003Z,-2.50
2023-11-23T01:16:42.482Z,-2.50
2023-11-23T01:19:11.815Z,-2.40
2023-11-23T01:21:40.391Z,-2.40
2023-11-23T01:24:12.451Z,-2.50
2023-11-23T01:26:43.845Z,-2.50
2023-11-23T01:29:15.753Z,-2.50
2023-11-23T01:31:47.859Z,-2.40
2023-11-23T01:34:16.572Z,-2.50
2023-11-23T01:36:45.115Z,-2.50
2023-11-23T01:39:18.777Z,-2.40
2023-11-23T01:41:55.542Z,-2.20
2023-11-23T01:44:28.191Z,-2.30
2023-11-23T01:46:56.858Z,-2.40
2023-11-23T01:49:26.939Z,-2.50
2023-11-23T01:51:57.886Z,-2.50
2023-11-23T01:54:27.956Z,-2.40
2023-11-23T01:56:58.039Z,-2.40
2023-11-23T01:59:30.647Z,-2.40
2023-11-23T02:01:59.235Z,-2.40
2023-11-23T02:04:30.744Z,-2.40
2023-11-23T02:07:00.279Z,-2.40
2023-11-23T02:09:32.281Z,-2.20
2023-11-23T02:12:02.719Z,-2.40
2023-11-23T02:14:32.368Z,-2.50
2023-11-23T02:17:00.802Z,-2.40
2023-11-23T02:19:29.367Z,-2.40
2023-11-23T02:21:57.950Z,-2.30
2023-11-23T02:24:27.836Z,-2.40
2023-11-23T02:26:59.484Z,-2.40
2023-11-23T02:29:28.048Z,-2.30
2023-11-23T02:31:56.639Z,-2.30
2023-11-23T02:34:24.193Z,-2.30
2023-11-23T02:36:52.746Z,-2.30
2023-11-23T02:39:24.984Z,-2.30
2023-11-23T02:41:57.881Z,-2.30
2023-11-23T02:44:31.187Z,-2.20
2023-11-23T02:47:01.377Z,-2.30
2023-11-23T02:49:30.011Z,-2.00
2023-11-23T02:51:59.788Z,-2.10
2023-11-23T02:54:28.279Z,-2.10
2023-11-23T02:56:59.374Z,-2.10
2023-11-23T02:59:28.166Z,-2.10
2023-11-23T03:01:59.876Z,-2.10
2023-11-23T03:04:28.465Z,-2.00
2023-11-23T03:06:57.060Z,-2.10
2023-11-23T03:09:25.682Z,-2.20
2023-11-23T03:11:54.835Z,-2.00
2023-11-23T03:14:25.055Z,-2.10
2023-11-23T03:16:54.031Z,-2.00
2023-11-23T03:19:22.499Z,-2.00
2023-11-23T03:21:51.095Z,-2.00
2023-11-23T03:24:19.680Z,-2.10
2023-11-23T03:26:49.230Z,-2.10
2023-11-23T03:29:18.958Z,-2.00
2023-11-23T03:31:52.745Z,-2.10
2023-11-23T03:34:22.496Z,-1.90
2023-11-23T03:36:56.643Z,-2.00
2023-11-23T03:39:28.798Z,-2.00
2023-11-23T03:41:57.461Z,-2.00
2023-11-23T03:44:26.053Z,-1.90
2023-11-23T03:46:57.018Z,-2.00
2023-11-23T03:49:25.706Z,-2.00
2023-11-23T03:51:55.318Z,-1.90
2023-11-23T03:54:27.812Z,-1.90
2023-11-23T03:56:56.471Z,-2.00
2023-11-23T03:59:25.485Z,-1.90
2023-11-23T04:01:55.454Z,-1.90
2023-11-23T04:04:24.657Z,-1.90
2023-11-23T04:06:53.057Z,-1.90
2023-11-23T04:09:26.674Z,-1.80
2023-11-23T04:11:55.557Z,-1.80
2023-11-23T04:14:24.065Z,-1.80
2023-11-23T04:16:52.554Z,-1.80
2023-11-23T04:19:22.873Z,-1.80
2023-11-23T04:21:51.400Z,-1.70
2023-11-23T04:24:20.097Z,-1.80
2023-11-23T04:26:49.718Z,-1.70
2023-11-23T04:29:18.151Z,-1.80
2023-11-23T04:31:48.610Z,-1.70
2023-11-23T04:34:18.728Z,-1.70
2023-11-23T04:36:50.587Z,-1.60
2023-11-23T04:39:22.042Z,-1.50
2023-11-23T04:41:50.727Z,-1.60
2023-11-23T04:44:23.734Z,-1.60
2023-11-23T04:46:54.824Z,-1.50
2023-11-23T04:49:23.405Z,-1.40
2023-11-23T04:51:56.123Z,-1.50
2023-11-23T04:54:24.768Z,-1.50
2023-11-23T04:56:57.622Z,-1.50
2023-11-23T04:59:28.717Z,-1.50
2023-11-23T05:01:57.776Z,-1.40
2023-11-23T05:04:29.759Z,-1.40
2023-11-23T05:06:59.712Z,-1.30
2023-11-23T05:09:29.104Z,-1.40
2023-11-23T05:11:59.632Z,-1.20
2023-11-23T05:14:33.794Z,-1.20
2023-11-23T05:17:02.269Z,-1.10
2023-11-23T05:19:40.037Z,-1.10
2023-11-23T05:22:14.175Z,-1.00
2023-11-23T05:24:42.621Z,-0.90
2023-11-23T05:27:11.521Z,-1.00
2023-11-23T05:29:39.969Z,-0.70
2023-11-23T05:32:08.899Z,-0.90
2023-11-23T05:34:37.290Z,-0.90
2023-11-23T05:37:07.474Z,-0.90
2023-11-23T05:39:38.847Z,-0.90
2023-11-23T05:42:10.216Z,-0.80
2023-11-23T05:44:39.030Z,-0.80
2023-11-23T05:47:07.922Z,-0.90
2023-11-23T05:49:36.406Z,-0.80
2023-11-23T05:52:05.009Z,-0.90
2023-11-23T05:54:33.540Z,-0.80
2023-11-23T05:57:03.406Z,-0.70
2023-11-23T05:59:32.040Z,-0.80
2023-11-23T06:02:04.135Z,-0.70
2023-11-23T06:04:32.767Z,-0.60
2023-11-23T06:07:01.248Z,-0.70
2023-11-23T06:09:29.967Z,-0.60
2023-11-23T06:11:58.413Z,-0.50
2023-11-23T06:14:28.273Z,-0.50
2023-11-23T06:16:59.184Z,-0.50
2023-11-23T06:19:29.003Z,-0.50
2023-11-23T06:21:57.412Z,-0.40
2023-11-23T06:24:25.846Z,-0.50
2023-11-23T06:26:54.667Z,-0.40
2023-11-23T06:29:23.101Z,-0.40
2023-11-23T06:31:53.367Z,-0.30
2023-11-23T06:34:24.212Z,-0.20
2023-11-23T06:36:52.704Z,-0.30
2023-11-23T06:39:25.464Z,-0.30
2023-11-23T06:41:54.476Z,-0.10
2023-11-23T06:44:25.181Z,-0.10
2023-11-23T06:46:55.001Z,0.00
2023-11-23T06:49:23.498Z,-0.10
2023-11-23T06:51:51.923Z,-0.10
2023-11-23T06:54:20.441Z,0.00
2023-11-23T06:56:48.788Z,0.00
2023-11-23T06:59:18.330Z,0.10
2023-11-23T07:01:46.776Z,0.10
2023-11-23T07:04:18.597Z,0.10
2023-11-23T07:06:47.285Z,0.10
2023-11-23T07:09:15.995Z,0.20
2023-11-23T07:11:45.902Z,0.20
2023-11-23T07:14:25.173Z,0.30
2023-11-23T07:16:57.846Z,0.20
2023-11-23T07:19:27.893Z,0.30
2023-11-23T07:21:56.494Z,0.30
2023-11-23T07:24:24.972Z,0.40
2023-11-23T07:26:54.284Z,0.40
2023-11-23T07:29:22.789Z,0.50
2023-11-23T07:31:53.846Z,0.40
2023-11-23T07:34:28.435Z,0.60
2023-11-23T07:36:58.442Z,0.40
2023-11-23T07:39:31.765Z,0.50
2023-11-23T07:42:04.813Z,0.50
2023-11-23T07:44:37.134Z,0.50
2023-11-23T07:47:10.228Z,0.50
2023-11-23T07:49:38.698Z,0.50
2023-11-23T07:52:09.632Z,0.70
2023-11-23T07:54:38.034Z,0.60
2023-11-23T07:57:06.544Z,0.60
2023-11-23T07:59:37.864Z,0.60
2023-11-23T08:02:06.942Z,0.70
2023-11-23T08:04:37.418Z,0.60
2023-11-23T08:07:06.164Z,0.60
2023-11-23T08:09:36.014Z,0.70
2023-11-23T08:12:05.765Z,0.60
2023-11-23T08:14:39.551Z,0.60
2023-11-23T08:17:13.039Z,0.70
2023-11-23T08:19:48.934Z,0.60
2023-11-23T08:22:22.936Z,0.80
2023-11-23T08:24:56.511Z,0.80
2023-11-23T08:27:27.227Z,0.80
2023-11-23T08:29:57.896Z,0.90
2023-11-23T08:32:33.414Z,0.90
2023-11-23T08:35:07.108Z,1.00
2023-11-23T08:37:40.003Z,0.90
2023-11-23T08:40:17.598Z,0.90
2023-11-23T08:42:48.586Z,0.90
2023-11-23T08:45:17.640Z,1.00
2023-11-23T08:47:50.290Z,1.00
2023-11-23T08:50:18.921Z,1.10
2023-11-23T08:52:47.388Z,1.10
2023-11-23T08:55:17.473Z,1.10
2023-11-23T08:57:47.347Z,1.10
2023-11-23T09:00:25.280Z,1.30
2023-11-23T09:02:56.482Z,1.20
2023-11-23T09:05:27.978Z,1.20
2023-11-23T09:07:58.867Z,1.30
2023-11-23T09:10:33.405Z,1.30
2023-11-23T09:13:03.920Z,1.40
2023-11-23T09:15:34.161Z,1.40
2023-11-23T09:18:05.057Z,1.30
2023-11-23T09:20:35.328Z,1.40
2023-11-23T09:23:07.360Z,1.60
2023-11-23T09:25:46.301Z,1.40
2023-11-23T09:28:17.371Z,1.70
2023-11-23T09:30:46.086Z,1.50
2023-11-23T09:33:16.315Z,1.50
2023-11-23T09:35:45.850Z,1.50
2023-11-23T09:38:15.965Z,1.50
2023-11-23T09:40:45.886Z,1.60
2023-11-23T09:43:17.199Z,1.60
2023-11-23T09:45:49.235Z,1.70
2023-11-23T09:48:19.355Z,1.70
2023-11-23T09:50:50.917Z,1.60
2023-11-23T09:53:23.138Z,1.80
2023-11-23T09:56:09.529Z,1.80
2023-11-23T09:58:41.003Z,1.70
2023-11-23T10:04:08.768Z,1.90
2023-11-23T10:07:15.175Z,1.90
2023-11-23T10:09:46.532Z,2.00
2023-11-23T10:12:32.369Z,2.00
2023-11-23T10:15:11.552Z,2.00
2023-11-23T10:17:58.066Z,2.00
2023-11-23T10:20:46.277Z,2.10
2023-11-23T10:23:19.358Z,2.10
2023-11-23T10:25:50.344Z,2.20
2023-11-23T10:28:37.985Z,2.10
2023-11-23T10:31:18.209Z,2.20
2023-11-23T10:33:49.444Z,2.20
2023-11-23T10:36:20.644Z,2.30
2023-11-23T10:38:49.512Z,2.30
2023-11-23T10:41:18.579Z,2.30
2023-11-23T10:43:50.827Z,2.30
2023-11-23T10:46:20.867Z,2.40
2023-11-23T10:48:51.434Z,2.50
2023-11-23T10:51:26.299Z,2.40
2023-11-23T10:53:54.783Z,2.50
2023-11-23T10:56:26.140Z,2.70
2023-11-23T10:58:59.843Z,2.70
2023-11-23T11:01:29.558Z,2.60
2023-11-23T11:03:58.660Z,2.70
2023-11-23T11:06:39.576Z,2.80
2023-11-23T11:09:18.738Z,2.90
2023-11-23T11:11:56.302Z,2.80
2023-11-23T11:14:37.982Z,2.80
2023-11-23T11:17:09.516Z,2.80
2023-11-23T11:19:47.894Z,2.80
2023-11-23T11:22:20.764Z,2.70
2023-11-23T11:24:59.948Z,2.80
2023-11-23T11:27:31.394Z,2.90
2023-11-23T11:30:02.588Z,2.90
2023-11-23T11:32:37.358Z,2.90
2023-11-23T11:35:10.620Z,2.90
2023-11-23T11:37:43.095Z,3.00
2023-11-23T11:40:14.103Z,3.20
2023-11-23T11:42:45.194Z,3.00
2023-11-23T11:45:19.866Z,3.00
2023-11-23T11:47:51.003Z,3.20
2023-11-23T11:50:20.048Z,3.10
2023-11-23T11:52:49.386Z,3.10
2023-11-23T11:55:17.998Z,3.30
2023-11-23T11:57:46.974Z,3.20
2023-11-23T12:00:20.560Z,3.20
2023-11-23T12:02:53.277Z,3.30
2023-11-23T12:05:25.768Z,3.30
2023-11-23T12:07:57.133Z,3.40
2023-11-23T12:10:26.820Z,3.40
2023-11-23T12:12:55.413Z,3.70
2023-11-23T12:15:25.365Z,3.40
2023-11-23T12:17:54.813Z,3.50
2023-11-23T12:20:23.887Z,3.70
2023-11-23T12:22:58.897Z,3.80
2023-11-23T12:25:29.656Z,3.90
2023-11-23T12:28:00.882Z,3.80
2023-11-23T12:30:31.488Z,3.80
2023-11-23T12:33:00.209Z,3.80
2023-11-23T12:35:30.562Z,3.90
2023-11-23T12:38:01.862Z,3.80
2023-11-23T12:40:30.249Z,3.90
2023-11-23T12:42:59.907Z,4.00
2023-11-23T12:45:31.041Z,4.10
2023-11-23T12:48:07.326Z,4.00
2023-11-23T12:50:37.084Z,4.00
2023-11-23T12:53:08.323Z,4.10
2023-11-23T12:55:36.786Z,4.10
2023-11-23T12:58:08.179Z,4.20
2023-11-23T13:00:44.589Z,4.10
2023-11-23T13:03:31.832Z,4.20
2023-11-23T13:06:00.412Z,4.20
2023-11-23T13:08:32.004Z,4.30
2023-11-23T13:11:06.205Z,4.50
2023-11-23T13:13:41.075Z,4.40
2023-11-23T13:16:16.484Z,4.40
2023-11-23T13:19:16.185Z,4.40
2023-11-23T13:22:02.884Z,4.40
2023-11-23T13:24:37.384Z,4.50
2023-11-23T13:27:10.063Z,4.70
2023-11-23T13:29:40.469Z,4.50
2023-11-23T13:32:11.871Z,4.50
2023-11-23T13:34:44.948Z,4.60
2023-11-23T13:37:15.549Z,4.60
2023-11-23T13:39:50.083Z,4.60
2023-11-23T13:42:24.386Z,4.70
2023-11-23T13:44:56.170Z,4.70
2023-11-23T13:47:25.264Z,4.80
2023-11-23T13:49:55.144Z,4.80
2023-11-23T13:52:27.378Z,4.90
2023-11-23T13:54:58.809Z,4.90
2023-11-23T13:57:27.308Z,4.90
2023-11-23T14:00:01.105Z,5.10
2023-11-23T14:02:37.484Z,5.10
2023-11-23T14:05:11.687Z,5.10
2023-11-23T14:07:52.022Z,5.20
2023-11-23T14:10:20.604Z,5.20
2023-11-23T14:12:49.026Z,5.30
2023-11-23T14:15:20.794Z,5.20
2023-11-23T14:17:49.783Z,5.30
2023-11-23T14:20:19.629Z,5.30
2023-11-23T14:22:47.518Z,5.40
2023-11-23T14:25:22.025Z,5.40
2023-11-23T14:27:51.416Z,5.40
2023-11-23T14:30:22.791Z,5.50
2023-11-23T14:32:51.427Z,5.60
2023-11-23T14:35:22.898Z,5.60
2023-11-23T14:37:52.000Z,5.50
2023-11-23T14:40:20.562Z,5.70
2023-11-23T14:42:56.400Z,5.80
2023-11-23T14:45:28.504Z,5.70
2023-11-23T14:47:58.840Z,5.70
2023-11-23T14:50:30.731Z,5.80
2023-11-23T14:53:00.307Z,5.80
2023-11-23T14:55:28.893Z,5.80
2023-11-23T14:57:58.565Z,5.70
2023-11-23T15:00:27.156Z,5.80
2023-11-23T15:02:56.390Z,5.80
2023-11-23T15:05:24.882Z,5.80
2023-11-23T15:07:54.870Z,5.80
2023-11-23T15:10:25.629Z,6.00
2023-11-23T15:12:54.864Z,5.90
2023-11-23T15:15:27.654Z,5.90
2023-11-23T15:17:59.142Z,5.90
2023-11-23T15:20:27.958Z,5.90
2023-11-23T15:22:57.774Z,5.90
2023-11-23T15:25:27.537Z,5.90
2023-11-23T15:27:56.424Z,5.90
2023-11-23T15:30:26.027Z,6.00
2023-11-23T15:32:58.044Z,6.00
2023-11-23T15:35:26.476Z,6.00
2023-11-23T15:37:55.917Z,6.10
2023-11-23T15:40:26.123Z,6.20
2023-11-23T15:42:54.916Z,6.20
2023-11-23T15:45:23.480Z,6.20
2023-11-23T15:47:51.969Z,6.20
2023-11-23T15:50:24.140Z,6.30
2023-11-23T15:52:55.105Z,6.30
2023-11-23T15:55:24.833Z,6.30
2023-11-23T15:57:54.723Z,6.50
2023-11-23T16:00:25.654Z,6.50
2023-11-23T16:02:56.716Z,6.60
2023-11-23T16:05:28.884Z,6.60
2023-11-23T16:07:58.127Z,6.60
2023-11-23T16:10:27.487Z,7.00
2023-11-23T16:12:57.177Z,6.70
2023-11-23T16:15:25.609Z,6.70
2023-11-23T16:17:55.751Z,6.90
2023-11-23T16:20:26.107Z,6.90
2023-11-23T16:22:54.503Z,6.90
2023-11-23T16:25:22.924Z,6.90
2023-11-23T16:27:51.439Z,7.00
2023-11-23T16:30:21.325Z,7.00
2023-11-23T16:32:49.897Z,7.10
2023-11-23T16:35:18.396Z,7.00
2023-11-23T16:37:47.128Z,7.10
2023-11-23T16:40:16.648Z,7.10
2023-11-23T16:42:45.295Z,7.10
2023-11-23T16:45:13.986Z,7.20
2023-11-23T16:47:44.024Z,7.20
2023-11-23T16:50:14.130Z,7.20
2023-11-23T16:52:42.832Z,7.20
2023-11-23T16:55:12.550Z,7.30
2023-11-23T16:57:41.586Z,7.40
2023-11-23T17:00:13.570Z,7.30
2023-11-23T17:02:44.657Z,7.40
2023-11-23T17:05:17.836Z,7.50
2023-11-23T17:07:47.411Z,7.50
2023-11-23T17:10:16.254Z,7.50
2023-11-23T17:12:45.720Z,7.60
2023-11-23T17:15:14.371Z,7.50
2023-11-23T17:17:47.034Z,7.40
2023-11-23T17:20:17.009Z,7.60
2023-11-23T17:22:46.081Z,7.40
2023-11-23T17:25:14.609Z,7.50
2023-11-23T17:27:48.329Z,7.50
2023-11-23T17:30:17.989Z,7.60
2023-11-23T17:32:48.031Z,7.60
2023-11-23T17:35:16.579Z,7.60
2023-11-23T17:37:45.994Z,7.50
2023-11-23T17:40:14.580Z,7.50
2023-11-23T17:42:43.608Z,7.50
2023-11-23T17:45:12.556Z,7.50
2023-11-23T17:47:41.098Z,7.60
2023-11-23T17:50:13.778Z,7.60
2023-11-23T17:52:42.878Z,7.60
2023-11-23T17:55:11.803Z,7.70
2023-11-23T17:57:40.304Z,7.60
2023-11-23T18:00:14.278Z,7.60
2023-11-23T18:02:44.342Z,7.60
2023-11-23T18:05:14.368Z,7.60
2023-11-23T18:07:43.716Z,7.60
2023-11-23T18:10:16.108Z,7.60
2023-11-23T18:12:45.977Z,7.60
2023-11-23T18:15:18.674Z,7.70
2023-11-23T18:17:47.166Z,7.70
2023-11-23T18:20:20.735Z,7.70
2023-11-23T18:22:49.123Z,7.70
2023-11-23T18:25:19.362Z,7.70
2023-11-23T18:27:47.846Z,7.60
2023-11-23T18:30:16.474Z,7.70
2023-11-23T18:32:45.006Z,7.70
2023-11-23T18:35:13.539Z,7.70
2023-11-23T18:37:43.316Z,7.70
2023-11-23T18:40:15.184Z,7.70
2023-11-23T18:42:45.876Z,7.70
2023-11-23T18:45:16.248Z,7.70
2023-11-23T18:47:44.969Z,7.60
2023-11-23T18:50:14.764Z,7.60
2023-11-23T18:52:44.618Z,7.60
2023-11-23T18:55:16.419Z,7.50
2023-11-23T18:57:45.357Z,7.50
2023-11-23T19:00:15.180Z,7.40
2023-11-23T19:02:43.908Z,7.30
2023-11-23T19:05:15.381Z,7.20
2023-11-23T19:07:45.784Z,7.30
2023-11-23T19:10:16.982Z,7.20
2023-11-23T19:12:51.122Z,7.20
2023-11-23T19:15:21.665Z,7.10
2023-11-23T19:17:51.681Z,7.10
2023-11-23T19:20:20.505Z,7.00
2023-11-23T19:22:51.324Z,7.00
2023-11-23T19:25:20.251Z,7.00
2023-11-23T19:27:49.223Z,7.00
2023-11-23T19:30:19.112Z,7.00
2023-11-23T19:32:49.306Z,7.00
2023-11-23T19:35:19.695Z,7.00
2023-11-23T19:37:52.972Z,7.10
2023-11-23T19:40:24.615Z,7.00
2023-11-23T19:42:54.988Z,7.10
2023-11-23T19:45:25.110Z,7.00
2023-11-23T19:47:56.418Z,7.00
2023-11-23T19:50:25.415Z,7.00
2023-11-23T19:52:58.392Z,7.10
2023-11-23T19:55:26.770Z,7.20
2023-11-23T19:57:55.242Z,7.10
2023-11-23T20:00:23.621Z,7.10
2023-11-23T20:02:52.191Z,7.10
2023-11-23T20:05:20.781Z,7.10
2023-11-23T20:07:49.303Z,7.20
2023-11-23T20:10:19.199Z,7.20
2023-11-23T20:12:47.686Z,7.10
2023-11-23T20:15:16.067Z,7.20
2023-11-23T20:17:44.460Z,7.20
2023-11-23T20:20:14.153Z,7.20
2023-11-23T20:22:42.538Z,7.20
2023-11-23T20:25:11.022Z,7.20
2023-11-23T20:27:40.961Z,7.30
2023-11-23T20:30:10.507Z,7.40
2023-11-23T20:32:39.096Z,7.30
2023-11-23T20:35:10.992Z,7.40
2023-11-23T20:37:39.538Z,7.10
2023-11-23T20:40:09.289Z,6.80
2023-11-23T20:42:37.805Z,6.70
2023-11-23T20:45:09.412Z,6.70
2023-11-23T20:47:37.815Z,6.60
2023-11-23T20:50:06.517Z,6.50
2023-11-23T20:52:36.781Z,6.50
2023-11-23T20:55:08.170Z,6.40
2023-11-23T20:57:37.472Z,6.40
2023-11-23T21:00:13.292Z,6.40
2023-11-23T21:02:43.118Z,6.40
2023-11-23T21:05:13.276Z,6.30
2023-11-23T21:07:42.267Z,6.30
2023-11-23T21:10:12.444Z,6.30
2023-11-23T21:12:40.997Z,6.20
2023-11-23T21:15:11.556Z,6.20
2023-11-23T21:17:40.817Z,6.20
2023-11-23T21:20:10.587Z,6.20
2023-11-23T21:22:38.937Z,6.20
2023-11-23T21:25:08.650Z,6.20
2023-11-23T21:27:39.399Z,6.20
2023-11-23T21:30:09.304Z,6.20
2023-11-23T21:32:39.541Z,6.20
2023-11-23T21:35:09.271Z,6.10
2023-11-23T21:37:37.537Z,6.10
2023-11-23T21:40:06.670Z,6.00
2023-11-23T21:42:35.293Z,6.00
2023-11-23T21:45:03.780Z,6.00
2023-11-23T21:47:32.005Z,5.90
2023-11-23T21:50:01.600Z,5.90
2023-11-23T21:52:30.330Z,5.90
2023-11-23T21:55:03.710Z,5.80
2023-11-23T21:57:32.895Z,5.80
2023-11-23T22:00:01.227Z,5.80
2023-11-23T22:02:30.331Z,5.70
2023-11-23T22:04:58.648Z,5.70
2023-11-23T22:07:28.373Z,5.70
2023-11-23T22:09:56.955Z,5.70
2023-11-23T22:12:25.780Z,5.70
2023-11-23T22:14:54.329Z,5.70
2023-11-23T22:17:22.963Z,5.70
2023-11-23T22:19:51.581Z,5.70
2023-11-23T22:22:21.179Z,5.70
2023-11-23T22:24:51.558Z,5.70
2023-11-23T22:27:21.575Z,5.70
2023-11-23T22:29:50.313Z,5.70
2023-11-23T22:32:19.772Z,5.70
2023-11-23T22:34:48.773Z,5.70
2023-11-23T22:37:17.582Z,5.70
2023-11-23T22:39:46.166Z,5.70
2023-11-23T22:42:17.064Z,5.70
2023-11-23T22:44:45.998Z,5.70
2023-11-23T22:47:14.296Z,5.70
2023-11-23T22:49:42.499Z,5.70
2023-11-23T22:52:10.809Z,5.70
2023-11-23T22:54:39.260Z,5.60
2023-11-23T22:57:07.574Z,5.60
2023-11-23T22:59:37.181Z,5.50
2023-11-23T23:02:06.103Z,5.50
2023-11-23T23:04:35.496Z,5.40
2023-11-23T23:07:06.217Z,5.40
2023-11-23T23:09:34.580Z,5.30
2023-11-23T23:12:01.954Z,5.30
2023-11-23T23:14:30.266Z,5.40
2023-11-23T23:16:59.997Z,5.30
2023-11-23T23:19:28.362Z,5.30
2023-11-23T23:21:57.091Z,5.30
2023-11-23T23:24:25.474Z,5.30
2023-11-23T23:26:54.006Z,5.30
2023-11-23T23:29:25.945Z,5.40
2023-11-23T23:31:55.265Z,5.40
2023-11-23T23:34:25.325Z,5.40
2023-11-23T23:36:53.639Z,5.40
2023-11-23T23:39:22.288Z,5.40
2023-11-23T23:41:50.638Z,5.40
2023-11-23T23:44:18.948Z,5.50
2023-11-23T23:46:47.301Z,5.50
2023-11-23T23:49:15.833Z,5.50
2023-11-23T23:51:45.697Z,5.50
2023-11-23T23:54:14.741Z,5.40
2023-11-23T23:56:43.063Z,5.40
2023-11-23T23:59:11.970Z,5.40
